PWSweather.com
Personal Weather Stations
Station Observations
WISCHPK61
Green Bay Schmitt Park, Green Bay, WI 54311

Green Bay Schmitt ParkGreen Bay, WI 54311

Lat: 44.514277, Lon: -87.935067

Elevation: 735

Station Type: Acu Rite Pro Weather Center model 02032C

http://greenbayweathercam.com

High Low Average
Temperature 79.0°F26.1°C 66.7°F19.3°C 69.8°F21.0°C
Dew Point 78.7°F25.9°C 66.4°F19.1°C 69.5°F20.8°C
Winds 2.3 mph 3.7 kmh Calm Calm Calm SECalm SE
Wind Gusts 5.8 mph9.3 kmh -- 1.0 mph1.6 kmh
Humidity 99% 99% 99%
Pressure 29.19 in988.5 mb 28.98 in981.4 mb -
Precipitation 1.31 in33.3 mm - -
Hour Temp Dew Point Humidity Winds Wind Gusts Pressure Precip Precip Rate Daily Precip Total
12:00 AM 67.6°F19.8°C 67.3°F19.6°C 99% 1.2 mph SE1.9 kmh SE 3.5 mph5.6 kmh 29.03 in983.1 mb - 0.06 in1.5 mm 0.06 in1.5 mm
01:00 AM 68.0°F20.0°C 67.7°F19.8°C 99% Calm Calm 3.5 mph5.6 kmh 29.03 in983.1 mb - 0.02 in0.5 mm 0.08 in2.0 mm
02:00 AM 67.6°F19.8°C 67.3°F19.6°C 99% Calm Calm 5.8 mph9.3 kmh 29.05 in983.7 mb - 0.02 in0.5 mm 0.10 in2.5 mm
03:00 AM 67.6°F19.8°C 67.3°F19.6°C 99% Calm Calm -- 29.05 in983.7 mb - 0.02 in0.5 mm 0.12 in3.0 mm
04:00 AM 68.0°F20.0°C 67.7°F19.8°C 99% 2.3 mph NNW3.7 kmh NNW 2.3 mph3.7 kmh 29.04 in983.4 mb - 0.00 in0.0 mm 0.12 in3.0 mm
05:00 AM 68.0°F20.0°C 67.7°F19.8°C 99% Calm Calm -- 28.98 in981.4 mb - 0.01 in0.3 mm 0.13 in3.3 mm
06:00 AM 67.6°F19.8°C 67.3°F19.6°C 99% Calm Calm -- 29.07 in984.4 mb - 0.00 in0.0 mm 0.13 in3.3 mm
07:00 AM 68.4°F20.2°C 68.1°F20.1°C 99% Calm Calm -- 29.08 in984.8 mb - 0.00 in0.0 mm 0.13 in3.3 mm
08:00 AM 70.6°F21.4°C 70.3°F21.3°C 99% Calm Calm -- 29.10 in985.4 mb - 0.00 in0.0 mm 0.13 in3.3 mm
09:00 AM 72.9°F22.7°C 72.6°F22.6°C 99% 1.2 mph SW1.9 kmh SW 1.2 mph1.9 kmh 29.14 in986.8 mb - 0.00 in0.0 mm 0.13 in3.3 mm
10:00 AM 73.9°F23.3°C 73.6°F23.1°C 99% Calm Calm -- 29.16 in987.5 mb - 0.00 in0.0 mm 0.13 in3.3 mm
11:00 AM 75.2°F24.0°C 74.9°F23.8°C 99% Calm Calm -- 29.16 in987.5 mb - 0.00 in0.0 mm 0.13 in3.3 mm
12:00 PM 77.4°F25.2°C 77.1°F25.1°C 99% Calm Calm -- 29.13 in986.5 mb - 0.00 in0.0 mm 0.13 in3.3 mm
01:00 PM 79.0°F26.1°C 78.7°F25.9°C 99% Calm Calm -- 29.11 in985.8 mb - 0.00 in0.0 mm 0.13 in3.3 mm
02:00 PM 74.1°F23.4°C 73.8°F23.2°C 99% Calm Calm -- 29.08 in984.8 mb - 0.31 in7.9 mm 0.44 in11.2 mm
03:00 PM 69.7°F20.9°C 69.4°F20.8°C 99% 1.2 mph S1.9 kmh S 1.2 mph1.9 kmh 29.07 in984.4 mb - 0.30 in7.6 mm 0.53 in13.5 mm
04:00 PM 66.7°F19.3°C 66.4°F19.1°C 99% 1.2 mph SSE1.9 kmh SSE 2.3 mph3.7 kmh 29.19 in988.5 mb - 0.47 in11.9 mm 1.00 in25.4 mm
06:00 PM 67.5°F19.7°C 67.2°F19.6°C 99% Calm Calm -- 29.16 in987.5 mb - 0.13 in3.3 mm 1.19 in30.2 mm
07:00 PM 66.9°F19.4°C 66.6°F19.2°C 99% Calm Calm -- 29.15 in987.1 mb - 0.04 in1.0 mm 1.21 in30.7 mm
08:00 PM 66.9°F19.4°C 66.6°F19.2°C 99% Calm Calm -- 29.17 in987.8 mb - 0.01 in0.3 mm 1.22 in31.0 mm
09:00 PM 67.1°F19.5°C 66.8°F19.3°C 99% Calm Calm -- 29.18 in988.1 mb - 0.01 in0.3 mm 1.23 in31.2 mm
10:00 PM 67.3°F19.6°C 67.0°F19.4°C 99% Calm Calm -- 29.16 in987.5 mb - 0.08 in2.0 mm 1.31 in33.3 mm
11:00 PM 67.2°F19.6°C 66.9°F19.4°C 99% Calm Calm -- 29.15 in987.1 mb - 0.06 in1.5 mm 1.54 in39.1 mm